createdAt,value
2017-12-03T00:01:45.496Z,8.52
2017-12-03T00:04:13.179Z,8.53
2017-12-03T00:06:40.778Z,8.58
2017-12-03T00:09:08.382Z,8.59
2017-12-03T00:11:36.120Z,8.49
2017-12-03T00:14:03.727Z,8.35
2017-12-03T00:16:31.330Z,8.26
2017-12-03T00:18:59.039Z,8.24
2017-12-03T00:21:26.643Z,8.22
2017-12-03T00:23:54.251Z,8.16
2017-12-03T00:26:21.962Z,8.12
2017-12-03T00:28:49.555Z,8.08
2017-12-03T00:31:17.153Z,8.08
2017-12-03T00:33:44.872Z,8.09
2017-12-03T00:36:12.474Z,8.15
2017-12-03T00:38:40.063Z,8.21
2017-12-03T00:41:07.771Z,8.11
2017-12-03T00:43:35.367Z,8.08
2017-12-03T00:46:02.958Z,8.05
2017-12-03T00:48:30.671Z,8.13
2017-12-03T00:50:58.278Z,8.14
2017-12-03T00:53:25.881Z,8.17
2017-12-03T00:55:53.554Z,8.19
2017-12-03T00:58:21.151Z,8.12
2017-12-03T01:00:48.817Z,8.17
2017-12-03T01:03:16.462Z,8.25
2017-12-03T01:05:44.051Z,8.29
2017-12-03T01:08:11.732Z,8.30
2017-12-03T01:10:39.411Z,8.32
2017-12-03T01:13:07.059Z,8.27
2017-12-03T01:15:34.836Z,8.28
2017-12-03T01:18:02.527Z,8.20
2017-12-03T01:20:30.171Z,8.10
2017-12-03T01:22:57.783Z,8.09
2017-12-03T01:25:25.547Z,8.10
2017-12-03T01:27:53.198Z,8.15
2017-12-03T01:30:20.800Z,8.16
2017-12-03T01:32:48.434Z,8.18
2017-12-03T01:35:16.022Z,8.22
2017-12-03T01:37:43.675Z,8.21
2017-12-03T01:40:11.307Z,8.17
2017-12-03T01:42:38.964Z,8.16
2017-12-03T01:45:06.555Z,8.14
2017-12-03T01:47:34.271Z,8.19
2017-12-03T01:50:01.863Z,8.10
2017-12-03T01:52:29.539Z,8.08
2017-12-03T01:54:57.248Z,8.16
2017-12-03T01:57:24.843Z,8.08
2017-12-03T01:59:52.448Z,8.07
2017-12-03T02:02:20.099Z,8.02
2017-12-03T02:04:47.764Z,8.03
2017-12-03T02:07:15.387Z,7.94
2017-12-03T02:09:43.046Z,7.84
2017-12-03T02:12:10.647Z,7.72
2017-12-03T02:14:38.247Z,7.63
2017-12-03T02:17:05.898Z,7.48
2017-12-03T02:19:33.507Z,7.26
2017-12-03T02:22:01.127Z,7.30
2017-12-03T02:24:28.762Z,7.16
2017-12-03T02:26:56.359Z,7.16
2017-12-03T02:29:23.955Z,7.03
2017-12-03T02:31:51.652Z,6.99
2017-12-03T02:34:19.257Z,6.98
2017-12-03T02:36:46.855Z,7.06
2017-12-03T02:39:14.498Z,7.09
2017-12-03T02:41:42.151Z,7.09
2017-12-03T02:44:10.759Z,7.15
2017-12-03T02:46:38.407Z,7.19
2017-12-03T02:49:05.999Z,7.22
2017-12-03T02:51:33.611Z,7.23
2017-12-03T02:54:01.280Z,7.25
2017-12-03T02:56:28.867Z,7.24
2017-12-03T02:58:56.529Z,7.28
2017-12-03T03:01:24.171Z,7.32
2017-12-03T03:03:51.767Z,7.35
2017-12-03T03:06:19.354Z,7.41
2017-12-03T03:08:47.007Z,7.44
2017-12-03T03:11:14.663Z,7.47
2017-12-03T03:13:42.255Z,7.49
2017-12-03T03:16:09.912Z,7.48
2017-12-03T03:18:37.514Z,7.47
2017-12-03T03:21:05.164Z,7.49
2017-12-03T03:23:32.803Z,7.55
2017-12-03T03:26:00.398Z,7.57
2017-12-03T03:28:27.991Z,7.58
2017-12-03T03:30:55.696Z,7.63
2017-12-03T03:33:23.298Z,7.65
2017-12-03T03:35:50.908Z,7.66
2017-12-03T03:38:18.567Z,7.68
2017-12-03T03:40:46.227Z,7.63
2017-12-03T03:43:13.896Z,7.55
2017-12-03T03:45:41.567Z,7.40
2017-12-03T03:48:09.244Z,7.40
2017-12-03T03:50:36.852Z,7.38
2017-12-03T03:53:04.511Z,7.39
2017-12-03T03:55:32.131Z,7.41
2017-12-03T03:57:59.723Z,7.46
2017-12-03T04:00:27.395Z,7.33
2017-12-03T04:02:55.011Z,7.35
2017-12-03T04:05:22.632Z,7.26
2017-12-03T04:07:50.282Z,7.28
2017-12-03T04:10:17.883Z,7.23
2017-12-03T04:12:45.572Z,7.21
2017-12-03T04:15:13.254Z,7.22
2017-12-03T04:17:40.868Z,7.19
2017-12-03T04:20:08.484Z,7.20
2017-12-03T04:22:36.232Z,7.24
2017-12-03T04:25:03.895Z,7.27
2017-12-03T04:27:31.619Z,7.25
2017-12-03T04:29:59.336Z,7.22
2017-12-03T04:32:27.057Z,7.22
2017-12-03T04:34:54.776Z,7.21
2017-12-03T04:37:22.488Z,7.28
2017-12-03T04:39:50.229Z,7.31
2017-12-03T04:42:17.907Z,7.33
2017-12-03T04:44:45.676Z,7.34
2017-12-03T04:47:13.399Z,7.32
2017-12-03T04:49:41.007Z,7.26
2017-12-03T04:52:08.671Z,7.24
2017-12-03T04:54:36.283Z,7.16
2017-12-03T04:57:03.909Z,7.12
2017-12-03T04:59:31.567Z,7.12
2017-12-03T05:01:59.167Z,7.18
2017-12-03T05:04:26.861Z,7.16
2017-12-03T05:06:54.531Z,7.12
2017-12-03T05:09:22.199Z,7.11
2017-12-03T05:11:49.807Z,7.07
2017-12-03T05:14:17.522Z,7.03
2017-12-03T05:16:45.134Z,7.10
2017-12-03T05:19:12.743Z,7.14
2017-12-03T05:21:40.403Z,7.12
2017-12-03T05:24:08.027Z,7.13
2017-12-03T05:26:35.691Z,7.17
2017-12-03T05:29:03.423Z,7.18
2017-12-03T05:31:31.035Z,7.14
2017-12-03T05:33:58.635Z,7.15
2017-12-03T05:36:26.308Z,7.13
2017-12-03T05:38:53.910Z,7.15
2017-12-03T05:41:21.582Z,7.15
2017-12-03T05:43:49.251Z,7.22
2017-12-03T05:46:16.862Z,7.15
2017-12-03T05:48:44.473Z,7.21
2017-12-03T05:51:12.122Z,7.22
2017-12-03T05:53:39.731Z,7.20
2017-12-03T05:56:07.394Z,7.14
2017-12-03T05:58:35.043Z,7.11
2017-12-03T06:01:02.659Z,7.14
2017-12-03T06:03:30.324Z,7.21
2017-12-03T06:05:58.040Z,7.21
2017-12-03T06:08:25.755Z,7.21
2017-12-03T06:10:53.427Z,7.25
2017-12-03T06:13:21.147Z,7.22
2017-12-03T06:15:48.815Z,7.03
2017-12-03T06:18:16.426Z,7.10
2017-12-03T06:20:44.086Z,7.16
2017-12-03T06:23:11.691Z,7.19
2017-12-03T06:25:39.357Z,7.22
2017-12-03T06:28:07.055Z,7.32
2017-12-03T06:30:34.666Z,7.31
2017-12-03T06:33:02.323Z,7.33
2017-12-03T06:35:29.975Z,7.47
2017-12-03T06:37:57.606Z,7.56
2017-12-03T06:40:25.199Z,7.73
2017-12-03T06:42:52.923Z,7.79
2017-12-03T06:45:20.591Z,8.03
2017-12-03T06:47:48.202Z,8.25
2017-12-03T06:50:15.863Z,8.47
2017-12-03T06:52:43.462Z,8.44
2017-12-03T06:55:11.071Z,8.61
2017-12-03T06:57:38.722Z,8.71
2017-12-03T07:00:06.383Z,8.85
2017-12-03T07:02:34.035Z,8.87
2017-12-03T07:05:01.694Z,8.88
2017-12-03T07:07:29.303Z,8.87
2017-12-03T07:09:56.963Z,8.83
2017-12-03T07:12:24.771Z,8.87
2017-12-03T07:14:52.439Z,9.13
2017-12-03T07:17:20.047Z,9.21
2017-12-03T07:19:47.717Z,9.27
2017-12-03T07:22:15.358Z,9.43
2017-12-03T07:24:43.039Z,9.58
2017-12-03T07:27:10.739Z,9.79
2017-12-03T07:29:38.402Z,10.03
2017-12-03T07:32:06.015Z,10.21
2017-12-03T07:34:33.813Z,10.18
2017-12-03T07:37:01.480Z,10.17
2017-12-03T07:39:29.150Z,10.03
2017-12-03T07:41:56.866Z,10.04
2017-12-03T07:44:24.591Z,10.04
2017-12-03T07:46:52.251Z,10.00
2017-12-03T07:49:19.962Z,10.10
2017-12-03T07:51:47.631Z,10.27
2017-12-03T07:54:15.310Z,10.48
2017-12-03T07:56:42.987Z,10.65
2017-12-03T07:59:10.607Z,10.70
2017-12-03T08:01:38.225Z,10.87
2017-12-03T08:04:05.883Z,10.92
2017-12-03T08:06:33.495Z,10.89
2017-12-03T08:09:01.163Z,10.93
2017-12-03T08:11:28.846Z,10.86
2017-12-03T08:13:56.463Z,10.71
2017-12-03T08:16:24.179Z,10.76
2017-12-03T08:18:51.959Z,10.79
2017-12-03T08:21:19.622Z,10.60
2017-12-03T08:23:47.288Z,10.55
2017-12-03T08:26:14.999Z,10.73
2017-12-03T08:28:42.744Z,10.97
2017-12-03T08:31:10.363Z,11.22
2017-12-03T08:33:38.031Z,11.39
2017-12-03T08:36:05.683Z,11.55
2017-12-03T08:38:33.343Z,11.73
2017-12-03T08:41:01.087Z,11.88
2017-12-03T08:43:28.756Z,12.13
2017-12-03T08:45:56.452Z,12.43
2017-12-03T08:48:24.192Z,12.86
2017-12-03T08:50:51.810Z,13.11
2017-12-03T08:53:19.426Z,13.26
2017-12-03T08:55:47.150Z,13.29
2017-12-03T08:58:14.840Z,13.34
2017-12-03T09:00:42.567Z,13.26
2017-12-03T09:03:10.320Z,12.14
2017-12-03T09:05:38.028Z,11.65
2017-12-03T09:08:05.713Z,11.10
2017-12-03T09:10:33.379Z,10.65
2017-12-03T09:13:01.001Z,10.47
2017-12-03T09:15:28.669Z,10.06
2017-12-03T09:17:56.391Z,10.14
2017-12-03T09:20:23.998Z,9.39
2017-12-03T09:22:51.680Z,9.37
2017-12-03T09:25:19.408Z,9.28
2017-12-03T09:27:47.088Z,9.25
2017-12-03T09:30:14.723Z,9.31
2017-12-03T09:32:46.758Z,9.10
2017-12-03T09:35:15.412Z,8.64
2017-12-03T09:37:44.312Z,8.68
2017-12-03T09:40:12.079Z,8.40
2017-12-03T09:42:39.763Z,8.42
2017-12-03T09:45:07.381Z,8.11
2017-12-03T09:47:35.243Z,8.01
2017-12-03T09:50:04.462Z,7.85
2017-12-03T09:52:32.824Z,7.94
2017-12-03T09:55:00.480Z,7.78
2017-12-03T09:57:29.595Z,7.75
2017-12-03T09:59:57.218Z,7.81
2017-12-03T10:02:24.900Z,7.68
2017-12-03T10:04:52.571Z,7.75
2017-12-03T10:07:20.190Z,7.27
2017-12-03T10:09:47.884Z,7.31
2017-12-03T10:12:15.491Z,7.13
2017-12-03T10:14:43.218Z,7.10
2017-12-03T10:17:11.516Z,7.11
2017-12-03T10:19:39.195Z,7.17
2017-12-03T10:22:06.924Z,7.24
2017-12-03T10:24:36.355Z,7.08
2017-12-03T10:27:04.053Z,7.05
2017-12-03T10:29:31.696Z,6.91
2017-12-03T10:32:00.344Z,6.82
2017-12-03T10:34:29.150Z,6.77
2017-12-03T10:36:58.187Z,6.71
2017-12-03T10:39:26.540Z,6.70
2017-12-03T10:41:54.175Z,6.92
2017-12-03T10:44:22.947Z,6.98
2017-12-03T10:46:50.795Z,6.98
2017-12-03T10:49:18.465Z,6.95
2017-12-03T10:51:46.063Z,7.04
2017-12-03T10:54:13.793Z,7.05
2017-12-03T10:56:41.463Z,7.18
2017-12-03T10:59:09.139Z,7.20
2017-12-03T11:01:36.891Z,7.29
2017-12-03T11:04:04.502Z,7.34
2017-12-03T11:06:32.136Z,7.31
2017-12-03T11:08:59.828Z,7.34
2017-12-03T11:11:27.451Z,7.24
2017-12-03T11:13:55.063Z,7.34
